Warning: A non-numeric value encountered in /home/httpd/v/a/l/valdefench57sgz/valdefench57sgz.franceserv.com/weather28/wsFunctions.php on line 312
  Séremange Erzange, Lorraine, Moselle 57, France.  (25 km au Nord de Metz et 10 km au Sud-Ouest de Thionville)    Latitude : 49° 18' 59'' Nord    Longitude : 6° 5' 33'' Est    Altitude : 210 Mètres  



My webcam FOSCAM plus d'informations My webcam FOSCAM


My webcam 2 facing SUD plus d'informations My webcam 2 facing SUD


Visitez nos sites météorologiques autres:

Cartes by Infoclimat

Releves de station MF

Site partenaire

MeteoTemplate

BLOG/MeteoTemplate.com

MK meteokit

HomeWeatherStation WU

Home MeteoLive Station 2

Radar Meteox

Radar Meteo60

carte MétéoAlerte

Image satellite par ARPAL_meteoFermo

Data Infoclimat.fr

Radars Pluies NE

Vigilance meteo FR

Keraunos

Carte Isobares

Tags GFS

Bracknell Animation

Air Lorraine



Pas de vigilance météorologique particulière.    Il n'y a aucun avertissement

Rapports METAR proximité

   
LFJL - Metz
Mise à jour: 26-04-2018 17:00
Ciel peu couvert  
Ciel peu couvert  
   Vent: Ouest 18.5 km/h
Vent: Ouest 18.5 km/h
Température: 13°C
Point de rosée: 3°C
Humidité: 51%
Baromètre: 1019 hPa
visibilité: More then 10 km
Détails des nuages: Ciel peu couvert ft
LFJL 261500Z AUTO 26010KT CAVOK 13/03 Q1019 NOSIG
ELLX - Luxemburg
Mise à jour: 26-04-2018 16:50
Ciel peu couvert  
Ciel peu couvert  
   Vent: Sud Ouest 20.4 km/h
Vent: Sud Ouest 20.4 km/h
Température: 13°C
Point de rosée: 0°C
Humidité: 41%
Baromètre: 1018 hPa
visibilité: More then 10 km
Détails des nuages: Ciel peu couvert ft
ELLX 261450Z 23011KT 190V270 CAVOK 13/M00 Q1018 NOSIG
EDDR - Sarrbrucken
Mise à jour: 26-04-2018 16:50
Ciel peu couvert  
Ciel peu couvert  
   Vent: Ouest Sud Ouest 24.1 km/h
Vent: Ouest Sud Ouest 24.1 km/h
Température: 13°C
Point de rosée: 0°C
Humidité: 41%
Baromètre: 1019 hPa
visibilité: More then 10 km
Détails des nuages: Ciel peu couvert ft
EDDR 261450Z 25013KT 210V290 CAVOK 13/00 Q1019 NOSIG
LFST - Strasbourg
Mise à jour: 26-04-2018 17:00
Ciel peu couvert  
Ciel peu couvert  
   Vent: Ouest 16.7 km/h
Vent: Ouest 16.7 km/h
Température: 16°C
Point de rosée: 1°C
Humidité: 36%
Baromètre: 1019 hPa
visibilité: More then 10 km
Détails des nuages: Ciel peu couvert ft
LFST 261500Z AUTO 27009KT 240V310 CAVOK 16/01 Q1019 NOSIG
  

Script développé par  Saratoga-weather.org Adapté pour le modèle par  Weerstation Leuven

Vous trouverez notre info météo Également à:

UK Metoffice

WeatherCloud

Weather Underground

French Weather Network

AWEKAS

WeatherlinkIP

Citizen Weather Observer Program (CWOP)

HAMweather, WeatherForYou, PWS Weather

Anything Weather

Infoclimat

lineaMeteo

meteonetwork

meteociel

stationmeteo

meteobelgique

wedaal24

wsmap

arps

weatherbug

wetterstationen

windgurucz

         

Équipement que nous utilisons:

Station de Météo
Davis VP2 Plus (Wireless)

Programme Météo
Meteohub

Ordinateur Météo
MeteoLink LAN

Provider
FranceServ Hébergement

Davis VP2 Plus (Wireless)

Meteohub

MeteoLink LAN

FranceServ Hébergement